KMEM/MEM METAR and TAF weather

Enter ICAO airport designator
Station Type Date Time Source
KMEM METAR 2019/06/18 04:54 UTC NOAA

KMEM 180454Z 15005KT 10SM FEW070 BKN110 OVC160 22/21 A2994 RMK AO2 SLP134 T02220211 $


Station Type Date Time Source
KMEM Decoded METAR 2019/06/18 04:54 UTC NOAA

MEMPHIS INTERNATIONAL AIRPORT , TN, United States (KMEM) 35-02N 089-59W 86M
Jun 18, 2019 - 12:54 AM EDT / 2019.06.18 0454 UTC
Wind: from the SSE (150 degrees) at 6 MPH (5 KT):0
Visibility: 10 mile(s):0
Sky conditions: overcast
Temperature: 72.0 F (22.2 C)
Dew Point: 70.0 F (21.1 C)
Relative Humidity: 93%
Pressure (altimeter): 29.94 in. Hg (1013 hPa)
ob: KMEM 180454Z 15005KT 10SM FEW070 BKN110 OVC160 22/21 A2994 RMK AO2 SLP134 T02220211
cycle: 5

Station Type Date Time Source
KMEM TAF 2019/06/18 03:59 UTC NOAA

TAF
AMD KMEM 180259Z 1803/1906 14005KT P6SM VCSH SCT025 BKN150
TEMPO 1810/1814 BKN012
FM181800 22008KT P6SM VCTS BKN040CB BKN120
FM190000 26004KT P6SM VCSH SCT040 BKN150

Example: see airport list